Time;durP1;ratioP1;P1;durP2;ratioP2;P2;SDS_P1;SDS_P2;PMS_P1;PMS_P2;Temp;Humidity;BMP_temperature;BMP_pressure;BME280_temperature;BME280_humidity;BME280_pressure;Samples;Min_cycle;Max_cycle;Signal;HPM_P1;HPM_P2
2022/02/13 00:02:44;;;;;;;;;;;;;;;-2.75;72.60;99891.58;218774;1278;23119;-69
2022/02/13 00:07:46;;;;;;;;;;;;;;;-2.77;72.56;99881.65;218694;1278;25368;-69
2022/02/13 00:12:52;;;;;;;;;;;;;;;-2.79;72.64;99875.92;218697;1278;22690;-69
2022/02/13 00:17:54;;;;;;;;;;;;;;;-2.79;72.49;99872.79;218603;1278;22564;-69
2022/02/13 00:22:58;;;;;;;;;;;;;;;-2.78;72.68;99872.15;218766;1277;24795;-69
2022/02/13 00:28:00;;;;;;;;;;;;;;;-2.79;72.71;99866.33;218858;1278;23186;-69
2022/02/13 00:33:06;;;;;;;;;;;;;;;-2.82;72.69;99858.76;218639;1281;24264;-69
2022/02/13 00:38:12;;;;;;;;;;;;;;;-2.86;72.94;99850.10;218455;1278;24718;-70
2022/02/13 00:43:14;;;;;;;;;;;;;;;-2.90;72.70;99846.42;218842;1277;22742;-68
2022/02/13 00:48:19;;;;;;;;;;;;;;;-2.94;72.80;99843.14;218474;1281;22485;-69
2022/02/13 00:53:23;;;;;;;;;;;;;;;-2.97;72.97;99836.67;218754;1278;22570;-68
2022/02/13 00:58:28;;;;;;;;;;;;;;;-2.99;73.09;99831.30;218663;1278;24584;-68
2022/02/13 01:03:34;;;;;;;;;;;;;;;-3.01;73.08;99828.41;218728;1281;22757;-69
2022/02/13 01:08:37;;;;;;;;;;;;;;;-3.02;72.97;99818.25;218724;1281;22553;-68
2022/02/13 01:13:40;;;;;;;;;;;;;;;-3.05;73.03;99814.67;218629;1281;22656;-68
2022/02/13 01:18:44;;;;;;;;;;;;;;;-3.09;73.12;99811.80;218633;1281;25444;-67
2022/02/13 01:23:53;;;;;;;;;;;;;;;-3.10;73.25;99799.89;218551;1280;25425;-68
2022/02/13 01:28:55;;;;;;;;;;;;;;;-3.08;73.27;99789.88;218711;1277;22726;-68
2022/02/13 01:34:00;;;;;;;;;;;;;;;-3.07;73.35;99782.43;218635;1277;24290;-69
2022/02/13 01:39:21;;;;;;;;;;;;;;;-3.06;73.33;99773.90;218732;1277;22557;-68
2022/02/13 01:44:24;;;;;;;;;;;;;;;-3.05;73.23;99758.64;218649;1278;25362;-68
2022/02/13 01:49:27;;;;;;;;;;;;;;;-3.04;73.17;99754.33;218717;1279;26524;-69
2022/02/13 01:54:30;;;;;;;;;;;;;;;-3.04;73.23;99748.73;218550;1280;25370;-68
2022/02/13 01:59:32;;;;;;;;;;;;;;;-3.04;73.42;99749.90;218690;1277;26547;-68
2022/02/13 02:04:34;;;;;;;;;;;;;;;-3.05;73.56;99744.08;218555;1279;22567;-69
2022/02/13 02:09:46;;;;;;;;;;;;;;;-3.08;73.61;99740.84;218333;1279;22557;-68
2022/02/13 02:14:48;;;;;;;;;;;;;;;-3.13;73.57;99732.61;218449;1279;24317;-69
2022/02/13 02:19:52;;;;;;;;;;;;;;;-3.18;73.72;99726.88;218599;1279;25349;-68
2022/02/13 02:25:08;;;;;;;;;;;;;;;-3.22;73.83;99722.27;218555;1279;22609;-69
2022/02/13 02:30:25;;;;;;;;;;;;;;;-3.25;73.92;99718.93;218137;1281;24340;-69
2022/02/13 02:35:27;;;;;;;;;;;;;;;-3.31;73.80;99713.80;218146;1280;22563;-69
2022/02/13 02:40:29;;;;;;;;;;;;;;;-3.35;73.86;99709.44;218540;1279;22565;-69
2022/02/13 02:45:31;;;;;;;;;;;;;;;-3.40;73.95;99699.82;218608;1279;22587;-69
2022/02/13 02:50:34;;;;;;;;;;;;;;;-3.44;74.17;99691.53;218551;1279;24248;-69
2022/02/13 02:55:36;;;;;;;;;;;;;;;-3.48;74.23;99687.41;218478;1278;22543;-69
2022/02/13 03:00:50;;;;;;;;;;;;;;;-3.52;74.28;99682.38;218749;1277;23204;-68
2022/02/13 03:06:04;;;;;;;;;;;;;;;-3.59;74.29;99680.13;218839;1279;25425;-69
2022/02/13 03:11:14;;;;;;;;;;;;;;;-3.61;74.44;99679.27;218840;1277;25572;-69
2022/02/13 03:16:26;;;;;;;;;;;;;;;-3.62;74.70;99674.44;218698;1277;22572;-69
2022/02/13 03:21:35;;;;;;;;;;;;;;;-3.64;74.84;99671.19;218709;1277;25406;-69
2022/02/13 03:26:37;;;;;;;;;;;;;;;-3.65;75.01;99667.20;218760;1277;22544;-69
2022/02/13 03:31:40;;;;;;;;;;;;;;;-3.66;74.96;99666.39;218927;1277;24245;-68
2022/02/13 03:36:42;;;;;;;;;;;;;;;-3.67;75.10;99660.23;218655;1278;24251;-69
2022/02/13 03:41:45;;;;;;;;;;;;;;;-3.68;75.26;99653.92;218715;1278;24386;-69
2022/02/13 03:46:50;;;;;;;;;;;;;;;-3.68;75.31;99650.63;218738;1277;24679;-69
2022/02/13 03:51:55;;;;;;;;;;;;;;;-3.68;75.17;99651.79;218716;1279;22570;-69
2022/02/13 03:57:03;;;;;;;;;;;;;;;-3.66;75.44;99646.88;218791;1278;24312;-69
2022/02/13 04:02:06;;;;;;;;;;;;;;;-3.64;75.55;99648.05;218513;1279;22634;-70
2022/02/13 04:07:08;;;;;;;;;;;;;;;-3.64;75.52;99640.13;218551;1279;22662;-67
2022/02/13 04:12:10;;;;;;;;;;;;;;;-3.63;75.53;99625.89;218667;1277;22610;-67
2022/02/13 04:17:16;;;;;;;;;;;;;;;-3.62;75.62;99615.60;218610;1277;23354;-68
2022/02/13 04:22:41;;;;;;;;;;;;;;;-3.58;75.74;99609.63;218719;1277;22567;-68
2022/02/13 04:27:44;;;;;;;;;;;;;;;-3.52;76.03;99608.30;218756;1277;22528;-69
2022/02/13 04:32:47;;;;;;;;;;;;;;;-3.48;76.24;99601.16;218669;1277;26602;-69
2022/02/13 04:38:22;;;;;;;;;;;;;;;-3.44;76.07;99595.30;218736;1277;22557;-69
2022/02/13 04:43:29;;;;;;;;;;;;;;;-3.42;76.07;99589.52;218533;1277;24276;-69
2022/02/13 04:48:43;;;;;;;;;;;;;;;-3.42;76.01;99589.49;218758;1277;22814;-69
2022/02/13 04:53:51;;;;;;;;;;;;;;;-3.40;76.10;99584.23;218686;1277;22550;-69
2022/02/13 04:58:53;;;;;;;;;;;;;;;-3.39;76.08;99583.70;218644;1277;22721;-70
2022/02/13 05:04:17;;;;;;;;;;;;;;;;;;;;;
2022/02/13 05:09:29;;;;;;;;;;;;;;;-3.37;76.25;99582.80;218622;1278;24222;-69
2022/02/13 05:14:34;;;;;;;;;;;;;;;-3.37;76.04;99573.02;218651;1277;22715;-68
2022/02/13 05:19:47;;;;;;;;;;;;;;;;;;;;;
2022/02/13 05:25:04;;;;;;;;;;;;;;;;;;;;;
2022/02/13 05:30:06;;;;;;;;;;;;;;;-3.40;76.23;99573.01;218556;1279;22785;-68
2022/02/13 05:35:09;;;;;;;;;;;;;;;-3.42;76.20;99571.67;218851;1277;22539;-67
2022/02/13 05:40:14;;;;;;;;;;;;;;;-3.44;76.37;99569.95;218537;1279;22553;-68
2022/02/13 05:45:16;;;;;;;;;;;;;;;-3.47;76.33;99563.45;218822;1277;25453;-69
2022/02/13 05:50:18;;;;;;;;;;;;;;;-3.51;76.36;99555.02;218602;1279;25410;-69
2022/02/13 05:55:20;;;;;;;;;;;;;;;-3.50;76.31;99560.23;218735;1278;25271;-69
2022/02/13 06:00:28;;;;;;;;;;;;;;;-3.46;76.68;99553.11;218494;1279;24232;-69
2022/02/13 06:05:30;;;;;;;;;;;;;;;-3.39;76.56;99550.40;218983;1279;26550;-68
2022/02/13 06:10:33;;;;;;;;;;;;;;;-3.33;76.70;99544.02;218623;1279;24265;-69
2022/02/13 06:15:38;;;;;;;;;;;;;;;-3.25;76.56;99545.56;218592;1279;22553;-69
2022/02/13 06:20:43;;;;;;;;;;;;;;;-3.16;76.75;99539.94;218557;1279;22553;-68
2022/02/13 06:25:49;;;;;;;;;;;;;;;-3.06;76.65;99544.50;218467;1277;22563;-69
2022/02/13 06:30:52;;;;;;;;;;;;;;;-2.97;76.79;99548.92;218640;1278;22560;-68
2022/02/13 06:35:57;;;;;;;;;;;;;;;-2.84;76.73;99544.40;218793;1277;22556;-68
2022/02/13 06:41:00;;;;;;;;;;;;;;;-2.72;76.75;99552.89;218148;1279;22570;-69
2022/02/13 06:46:21;;;;;;;;;;;;;;;-2.58;76.66;99554.66;218248;1281;24381;-70
2022/02/13 06:51:27;;;;;;;;;;;;;;;-2.44;76.63;99542.70;218743;1279;25474;-69
2022/02/13 06:56:29;;;;;;;;;;;;;;;-2.29;76.43;99538.50;218742;1277;22540;-68
2022/02/13 07:01:34;;;;;;;;;;;;;;;-2.12;76.46;99531.53;218537;1278;24294;-68
2022/02/13 07:06:45;;;;;;;;;;;;;;;-1.90;76.65;99526.78;218790;1277;24286;-68
2022/02/13 07:11:48;;;;;;;;;;;;;;;-1.68;76.27;99508.17;218843;1277;24218;-69
2022/02/13 07:16:50;;;;;;;;;;;;;;;-1.41;76.34;99495.91;218665;1277;22535;-68
2022/02/13 07:21:55;;;;;;;;;;;;;;;-1.17;76.10;99492.45;218756;1277;24292;-69
2022/02/13 07:26:58;;;;;;;;;;;;;;;-0.61;76.72;99486.83;218628;1278;22556;-69
2022/02/13 07:32:01;;;;;;;;;;;;;;;-0.17;75.67;99493.58;218792;1278;22658;-69
2022/02/13 07:37:05;;;;;;;;;;;;;;;-0.09;74.71;99492.63;218676;1278;23102;-69
2022/02/13 07:42:10;;;;;;;;;;;;;;;-0.12;73.92;99497.48;218722;1278;25410;-68
2022/02/13 07:47:15;;;;;;;;;;;;;;;-0.19;73.87;99497.23;218982;1278;24140;-68
2022/02/13 07:52:18;;;;;;;;;;;;;;;-0.20;73.68;99506.55;218710;1279;25352;-69
2022/02/13 07:57:46;;;;;;;;;;;;;;;-0.09;73.90;99509.02;218263;1281;22604;-69
2022/02/13 08:02:59;;;;;;;;;;;;;;;;;;;;;
2022/02/13 08:08:05;;;;;;;;;;;;;;;0.24;73.19;99500.92;218816;1277;24301;-69
2022/02/13 08:13:07;;;;;;;;;;;;;;;0.42;72.70;99496.45;218813;1277;25474;-68
2022/02/13 08:18:18;;;;;;;;;;;;;;;0.64;72.13;99493.91;218872;1278;22608;-68
2022/02/13 08:23:23;;;;;;;;;;;;;;;0.91;71.81;99499.29;218777;1277;25324;-69
2022/02/13 08:28:38;;;;;;;;;;;;;;;1.17;71.01;99497.19;218691;1277;25312;-69
2022/02/13 08:33:57;;;;;;;;;;;;;;;1.45;70.38;99490.57;218752;1277;25448;-69
2022/02/13 08:39:02;;;;;;;;;;;;;;;1.69;70.38;99488.80;218936;1278;25408;-67
2022/02/13 08:44:10;;;;;;;;;;;;;;;1.90;69.83;99487.39;218702;1277;25345;-68
2022/02/13 08:49:15;;;;;;;;;;;;;;;2.05;68.98;99477.84;218560;1278;26384;-67
2022/02/13 08:54:17;;;;;;;;;;;;;;;2.21;68.51;99475.36;218832;1278;25381;-69
2022/02/13 08:59:19;;;;;;;;;;;;;;;2.30;66.98;99469.63;218547;1277;25259;-68
2022/02/13 09:04:35;;;;;;;;;;;;;;;2.43;66.56;99469.96;218626;1279;24951;-69
2022/02/13 09:10:01;;;;;;;;;;;;;;;2.50;65.29;99465.17;218683;1277;25014;-69
2022/02/13 09:15:09;;;;;;;;;;;;;;;2.54;63.79;99460.70;218500;1277;24241;-69
2022/02/13 09:20:19;;;;;;;;;;;;;;;2.55;62.72;99460.40;218340;1279;26397;-67
2022/02/13 09:25:32;;;;;;;;;;;;;;;;;;;;;
2022/02/13 09:31:08;;;;;;;;;;;;;;;2.68;62.11;99446.48;218772;1278;22664;-68
2022/02/13 09:36:19;;;;;;;;;;;;;;;2.79;62.04;99445.11;218537;1278;22561;-68
2022/02/13 09:41:40;;;;;;;;;;;;;;;;;;;;;
2022/02/13 09:46:59;;;;;;;;;;;;;;;3.18;61.85;99439.04;218751;1278;25313;-68
2022/02/13 09:52:16;;;;;;;;;;;;;;;3.36;59.65;99434.61;218746;1279;22575;-69
2022/02/13 10:02:55;;;;;;;;;;;;;;;3.65;59.01;99430.58;218419;1279;24834;-70
2022/02/13 10:08:06;;;;;;;;;;;;;;;3.80;59.87;99425.23;218790;1279;24255;-68
2022/02/13 10:13:16;;;;;;;;;;;;;;;4.00;58.52;99423.95;218642;1279;22564;-68
2022/02/13 10:18:27;;;;;;;;;;;;;;;4.12;55.77;99414.58;218688;1278;22572;-67
2022/02/13 10:23:50;;;;;;;;;;;;;;;4.19;55.39;99406.25;218769;1278;24826;-69
2022/02/13 10:29:11;;;;;;;;;;;;;;;4.30;55.08;99401.41;218598;1277;24876;-68
2022/02/13 10:34:17;;;;;;;;;;;;;;;4.40;54.17;99386.82;218840;1279;24328;-68
2022/02/13 10:39:24;;;;;;;;;;;;;;;4.55;54.66;99390.80;218651;1279;25544;-70
2022/02/13 10:44:32;;;;;;;;;;;;;;;4.68;53.94;99386.02;218998;1279;23594;-68
2022/02/13 10:49:52;;;;;;;;;;;;;;;4.83;52.97;99378.25;218622;1279;23108;-69
2022/02/13 10:55:24;;;;;;;;;;;;;;;5.03;54.03;99369.86;218569;1278;24366;-68
2022/02/13 11:07:15;;;;;;;;;;;;;;;5.50;50.96;99348.54;218597;1278;22553;-67
2022/02/13 11:12:21;;;;;;;;;;;;;;;5.70;51.29;99333.60;218355;1278;22541;-68
2022/02/13 11:17:36;;;;;;;;;;;;;;;5.85;49.02;99318.62;218706;1279;22643;-69
2022/02/13 11:22:53;;;;;;;;;;;;;;;5.94;48.52;99310.50;218799;1278;22634;-68
2022/02/13 11:27:59;;;;;;;;;;;;;;;5.93;46.47;99315.44;218685;1278;22606;-68
2022/02/13 11:33:05;;;;;;;;;;;;;;;5.87;45.89;99305.94;218740;1279;22557;-68
2022/02/13 11:38:09;;;;;;;;;;;;;;;5.93;46.03;99301.34;218703;1279;22554;-68
2022/02/13 11:43:38;;;;;;;;;;;;;;;5.90;44.34;99298.21;218784;1279;22566;-68
2022/02/13 11:48:43;;;;;;;;;;;;;;;5.78;45.70;99292.30;218750;1279;24351;-71
2022/02/13 11:53:46;;;;;;;;;;;;;;;5.82;45.88;99283.58;218689;1279;22561;-69
2022/02/13 11:59:01;;;;;;;;;;;;;;;5.88;44.30;99287.82;218728;1278;22716;-68
2022/02/13 12:05:15;;;;;;;;;;;;;;;6.02;43.98;99271.05;218441;1279;25258;-67
2022/02/13 12:10:31;;;;;;;;;;;;;;;6.23;45.21;99274.37;218479;1279;22569;-68
2022/02/13 12:15:34;;;;;;;;;;;;;;;6.44;46.07;99262.91;218715;1278;25266;-68
2022/02/13 12:20:39;;;;;;;;;;;;;;;6.61;45.13;99259.42;218772;1278;23194;-68
2022/02/13 12:25:46;;;;;;;;;;;;;;;6.62;44.27;99262.46;218931;1278;23388;-67
2022/02/13 12:30:51;;;;;;;;;;;;;;;6.44;42.72;99253.49;218785;1279;24805;-69
2022/02/13 12:35:56;;;;;;;;;;;;;;;6.34;44.74;99250.28;218715;1279;22918;-68
2022/02/13 12:41:00;;;;;;;;;;;;;;;6.35;44.57;99244.43;218789;1278;24251;-68
2022/02/13 12:46:02;;;;;;;;;;;;;;;6.41;44.43;99231.37;218628;1277;24443;-68
2022/02/13 12:51:06;;;;;;;;;;;;;;;6.47;43.62;99231.64;218756;1279;22547;-68
2022/02/13 12:56:27;;;;;;;;;;;;;;;6.46;43.54;99222.58;218626;1279;25343;-68
2022/02/13 13:01:35;;;;;;;;;;;;;;;6.53;43.33;99211.30;218665;1279;22693;-68
2022/02/13 13:06:40;;;;;;;;;;;;;;;6.56;43.17;99202.03;218616;1278;24478;-69
2022/02/13 13:11:48;;;;;;;;;;;;;;;6.54;43.74;99195.95;218724;1279;24299;-68
2022/02/13 13:17:03;;;;;;;;;;;;;;;6.61;43.89;99194.03;218806;1279;22543;-68
2022/02/13 13:22:28;;;;;;;;;;;;;;;6.67;43.52;99180.47;218789;1277;22548;-68
2022/02/13 13:27:30;;;;;;;;;;;;;;;6.72;44.16;99170.45;218763;1279;24262;-68
2022/02/13 13:32:40;;;;;;;;;;;;;;;6.79;44.30;99170.23;218758;1278;24106;-68
2022/02/13 13:37:51;;;;;;;;;;;;;;;6.84;44.33;99162.23;218747;1278;22629;-67
2022/02/13 13:42:54;;;;;;;;;;;;;;;6.85;42.87;99150.16;218723;1279;25304;-68
2022/02/13 13:47:56;;;;;;;;;;;;;;;6.80;42.62;99153.89;218777;1279;22587;-68
2022/02/13 13:52:58;;;;;;;;;;;;;;;6.75;42.58;99154.88;218779;1279;22576;-68
2022/02/13 13:58:04;;;;;;;;;;;;;;;6.66;42.48;99148.41;218633;1279;22482;-68
2022/02/13 14:03:07;;;;;;;;;;;;;;;6.58;43.24;99139.77;218754;1278;22721;-68
2022/02/13 14:08:10;;;;;;;;;;;;;;;6.52;43.37;99132.79;218857;1279;22577;-69
2022/02/13 14:13:19;;;;;;;;;;;;;;;6.48;42.69;99130.24;218981;1278;22834;-68
2022/02/13 14:18:22;;;;;;;;;;;;;;;6.40;43.45;99129.38;218853;1278;25438;-67
2022/02/13 14:23:34;;;;;;;;;;;;;;;;;;;;;
2022/02/13 14:28:37;;;;;;;;;;;;;;;6.26;43.66;99143.39;218839;1277;25931;-67
2022/02/13 14:33:53;;;;;;;;;;;;;;;6.16;42.91;99144.10;218622;1279;25435;-68
2022/02/13 14:38:55;;;;;;;;;;;;;;;6.05;43.45;99141.36;218591;1279;27418;-69
2022/02/13 14:43:57;;;;;;;;;;;;;;;5.92;42.60;99139.48;218437;1279;25388;-68
2022/02/13 14:49:00;;;;;;;;;;;;;;;5.77;43.86;99137.34;218767;1278;26290;-68
2022/02/13 14:54:14;;;;;;;;;;;;;;;5.64;44.37;99144.05;218667;1279;25484;-67
2022/02/13 14:59:19;;;;;;;;;;;;;;;5.53;44.82;99141.73;218787;1279;22961;-68
2022/02/13 15:04:22;;;;;;;;;;;;;;;5.41;45.44;99133.27;218582;1279;24546;-68
2022/02/13 15:09:24;;;;;;;;;;;;;;;5.28;45.33;99124.33;218885;1278;23960;-68
2022/02/13 15:14:26;;;;;;;;;;;;;;;5.14;45.41;99120.73;218830;1279;22573;-67
2022/02/13 15:19:36;;;;;;;;;;;;;;;5.00;45.70;99118.20;218764;1279;22576;-69
2022/02/13 15:24:43;;;;;;;;;;;;;;;4.85;45.78;99111.23;218907;1278;22552;-69
2022/02/13 15:30:00;;;;;;;;;;;;;;;;;;;;;
2022/02/13 15:35:23;;;;;;;;;;;;;;;4.55;46.63;99106.77;218700;1279;22763;-67
2022/02/13 15:40:40;;;;;;;;;;;;;;;4.36;47.11;99102.55;218524;1279;22563;-67
2022/02/13 15:45:52;;;;;;;;;;;;;;;4.18;47.48;99097.77;218572;1279;25260;-68
2022/02/13 15:50:55;;;;;;;;;;;;;;;4.03;47.77;99098.10;218701;1279;22692;-68
2022/02/13 15:55:57;;;;;;;;;;;;;;;3.87;48.13;99094.28;218736;1279;22535;-67
2022/02/13 16:01:02;;;;;;;;;;;;;;;3.72;48.12;99110.33;218685;1279;22531;-67
2022/02/13 16:06:05;;;;;;;;;;;;;;;3.57;48.30;99114.20;218632;1279;22565;-67
2022/02/13 16:11:07;;;;;;;;;;;;;;;3.38;48.81;99115.09;218743;1280;22563;-69
2022/02/13 16:16:09;;;;;;;;;;;;;;;3.24;49.13;99119.09;218888;1279;24288;-68
2022/02/13 16:21:14;;;;;;;;;;;;;;;3.12;49.13;99114.54;218733;1279;24827;-68
2022/02/13 16:26:22;;;;;;;;;;;;;;;3.04;49.23;99115.79;218763;1279;25214;-68
2022/02/13 16:31:29;;;;;;;;;;;;;;;2.95;49.46;99106.37;218705;1279;25204;-67
2022/02/13 16:36:32;;;;;;;;;;;;;;;2.81;49.57;99112.67;218965;1279;25363;-67
2022/02/13 16:41:34;;;;;;;;;;;;;;;2.70;49.59;99104.73;218595;1278;22533;-68
2022/02/13 16:46:37;;;;;;;;;;;;;;;2.61;49.75;99098.70;218832;1278;22561;-68
2022/02/13 16:51:40;;;;;;;;;;;;;;;2.50;50.01;99092.52;218942;1279;22606;-68
2022/02/13 16:56:43;;;;;;;;;;;;;;;2.38;49.94;99088.67;218675;1281;22702;-68
2022/02/13 17:01:46;;;;;;;;;;;;;;;2.31;50.04;99087.88;218784;1279;22530;-68
2022/02/13 17:06:56;;;;;;;;;;;;;;;2.27;49.93;99095.33;218610;1279;22629;-68
2022/02/13 17:12:02;;;;;;;;;;;;;;;2.22;50.24;99104.88;218740;1279;23849;-68
2022/02/13 17:17:07;;;;;;;;;;;;;;;2.11;50.08;99099.80;218788;1279;22596;-68
2022/02/13 17:22:09;;;;;;;;;;;;;;;2.00;50.26;99098.96;218769;1279;25451;-68
2022/02/13 17:27:11;;;;;;;;;;;;;;;1.91;50.38;99099.10;218645;1279;25317;-68
2022/02/13 17:32:16;;;;;;;;;;;;;;;1.79;50.51;99094.77;218568;1279;24624;-68
2022/02/13 17:37:23;;;;;;;;;;;;;;;1.67;50.65;99091.91;218799;1279;22566;-69
2022/02/13 17:42:27;;;;;;;;;;;;;;;1.56;50.84;99085.21;218869;1279;24798;-68
2022/02/13 17:47:30;;;;;;;;;;;;;;;1.48;50.83;99075.03;218847;1278;23532;-68
2022/02/13 17:52:33;;;;;;;;;;;;;;;1.36;51.10;99075.90;218884;1278;25595;-67
2022/02/13 17:57:36;;;;;;;;;;;;;;;1.15;51.52;99069.70;218773;1279;22762;-68
2022/02/13 18:02:42;;;;;;;;;;;;;;;0.92;51.76;99068.60;218976;1280;22549;-68
2022/02/13 18:07:45;;;;;;;;;;;;;;;0.76;52.13;99076.13;218618;1280;23134;-68
2022/02/13 18:12:47;;;;;;;;;;;;;;;0.68;52.34;99076.89;218727;1279;25481;-67
2022/02/13 18:17:53;;;;;;;;;;;;;;;0.61;52.74;99074.14;218686;1279;24259;-66
2022/02/13 18:23:05;;;;;;;;;;;;;;;0.50;52.50;99073.46;218738;1279;23457;-69
2022/02/13 18:28:19;;;;;;;;;;;;;;;0.39;52.97;99071.72;218866;1278;24817;-68
2022/02/13 18:33:41;;;;;;;;;;;;;;;0.35;52.86;99065.83;218707;1278;24258;-68
2022/02/13 18:38:51;;;;;;;;;;;;;;;0.28;52.56;99055.17;218543;1280;22586;-67
2022/02/13 18:44:01;;;;;;;;;;;;;;;0.24;52.45;99048.20;218449;1280;24175;-67
2022/02/13 18:49:08;;;;;;;;;;;;;;;0.18;52.23;99042.52;218794;1279;24392;-68
2022/02/13 18:54:16;;;;;;;;;;;;;;;0.19;51.99;99037.16;218738;1277;22574;-68
2022/02/13 18:59:18;;;;;;;;;;;;;;;0.15;52.06;99035.26;218552;1278;24332;-69
2022/02/13 19:04:26;;;;;;;;;;;;;;;0.00;52.27;99033.73;218470;1278;24355;-70
2022/02/13 19:09:34;;;;;;;;;;;;;;;-0.08;51.99;99027.17;218413;1281;22569;-67
2022/02/13 19:14:38;;;;;;;;;;;;;;;-0.16;52.31;99035.57;218391;1281;24397;-68
2022/02/13 19:19:43;;;;;;;;;;;;;;;-0.32;52.29;99029.70;218619;1278;22577;-68
2022/02/13 19:24:45;;;;;;;;;;;;;;;-0.41;52.48;99025.36;218634;1279;24432;-68
2022/02/13 19:29:50;;;;;;;;;;;;;;;-0.45;52.77;99020.98;218668;1277;22577;-68
2022/02/13 19:34:56;;;;;;;;;;;;;;;-0.49;52.68;99015.86;218509;1281;22534;-68
2022/02/13 19:40:26;;;;;;;;;;;;;;;-0.56;52.78;99019.98;218470;1278;22573;-68
2022/02/13 19:45:49;;;;;;;;;;;;;;;-0.74;53.07;99020.66;218578;1277;22613;-69
2022/02/13 19:51:23;;;;;;;;;;;;;;;;;;;;;
2022/02/13 19:56:36;;;;;;;;;;;;;;;-1.01;53.33;99015.77;218520;1278;24263;-68
2022/02/13 20:02:06;;;;;;;;;;;;;;;-1.15;53.76;99007.03;218582;1278;22549;-69
2022/02/13 20:07:20;;;;;;;;;;;;;;;-1.28;53.69;99011.22;218744;1277;22540;-68
2022/02/13 20:12:22;;;;;;;;;;;;;;;-1.40;54.08;99011.55;218890;1277;25473;-68
2022/02/13 20:17:43;;;;;;;;;;;;;;;-1.50;54.35;99002.32;218711;1278;23784;-69
2022/02/13 20:22:57;;;;;;;;;;;;;;;-1.61;54.45;98998.23;218884;1277;22559;-69
2022/02/13 20:28:08;;;;;;;;;;;;;;;-1.70;54.72;98991.09;218785;1277;22575;-68
2022/02/13 20:33:11;;;;;;;;;;;;;;;-1.76;55.02;98986.56;218701;1279;24251;-71
2022/02/13 20:38:25;;;;;;;;;;;;;;;-1.74;55.13;98984.70;218664;1278;22674;-68
2022/02/13 20:43:39;;;;;;;;;;;;;;;-1.76;55.29;98985.64;218764;1280;22602;-68
2022/02/13 20:48:52;;;;;;;;;;;;;;;-1.83;55.31;98978.05;218510;1281;23005;-69
2022/02/13 20:54:04;;;;;;;;;;;;;;;-1.91;55.66;98972.63;218730;1281;22551;-68
2022/02/13 20:59:21;;;;;;;;;;;;;;;-1.99;55.85;98964.39;218913;1277;22553;-68
2022/02/13 21:04:28;;;;;;;;;;;;;;;-2.07;55.80;98961.44;218731;1277;24282;-68
2022/02/13 21:09:36;;;;;;;;;;;;;;;-2.14;56.08;98957.99;218492;1281;22581;-68
2022/02/13 21:14:49;;;;;;;;;;;;;;;-2.20;56.46;98958.16;218468;1279;24241;-69
2022/02/13 21:19:54;;;;;;;;;;;;;;;-2.25;56.35;98959.61;218753;1279;22480;-68
2022/02/13 21:25:02;;;;;;;;;;;;;;;-2.31;56.51;98962.38;218633;1278;25435;-68
2022/02/13 21:30:25;;;;;;;;;;;;;;;-2.36;56.57;98965.12;218724;1277;22570;-69
2022/02/13 21:35:35;;;;;;;;;;;;;;;-2.43;56.66;98963.36;218935;1278;22560;-68
2022/02/13 21:40:37;;;;;;;;;;;;;;;-2.52;56.77;98951.44;218854;1277;22771;-68
2022/02/13 21:45:41;;;;;;;;;;;;;;;-2.60;56.84;98942.50;218673;1279;22969;-68
2022/02/13 21:51:09;;;;;;;;;;;;;;;-2.66;57.22;98934.90;218678;1278;24253;-69
2022/02/13 21:56:22;;;;;;;;;;;;;;;-2.72;57.48;98926.86;218590;1278;25460;-68
2022/02/13 22:01:32;;;;;;;;;;;;;;;-2.76;57.69;98922.38;218507;1278;23170;-68
2022/02/13 22:06:58;;;;;;;;;;;;;;;-2.82;58.04;98911.23;218698;1278;22543;-68
2022/02/13 22:12:09;;;;;;;;;;;;;;;-2.84;58.17;98904.25;218812;1278;22553;-68
2022/02/13 22:17:26;;;;;;;;;;;;;;;-2.87;58.47;98901.21;218822;1277;22705;-68
2022/02/13 22:22:37;;;;;;;;;;;;;;;-2.88;58.92;98898.95;218595;1277;22586;-68
2022/02/13 22:27:41;;;;;;;;;;;;;;;-2.89;59.32;98893.85;218531;1277;22608;-67
2022/02/13 22:33:14;;;;;;;;;;;;;;;-2.92;59.65;98889.05;218541;1281;22600;-68
2022/02/13 22:38:39;;;;;;;;;;;;;;;-2.95;59.77;98885.58;218452;1277;22580;-68
2022/02/13 22:43:51;;;;;;;;;;;;;;;-2.97;60.23;98881.14;218527;1277;22707;-70
2022/02/13 22:49:05;;;;;;;;;;;;;;;-2.98;60.65;98867.98;218477;1279;22600;-68
2022/02/13 22:54:22;;;;;;;;;;;;;;;-2.98;60.91;98855.58;218438;1277;22562;-68
2022/02/13 22:59:24;;;;;;;;;;;;;;;-2.95;61.22;98844.45;218499;1277;25312;-68
2022/02/13 23:15:41;;;;;;;;;;;;;;;-2.46;62.44;98831.42;218325;1277;22580;-67
2022/02/13 23:21:22;;;;;;;;;;;;;;;-2.43;62.05;98825.66;218417;1277;22597;-68
2022/02/13 23:26:57;;;;;;;;;;;;;;;-2.47;62.30;98820.13;218381;1277;24301;-68
2022/02/13 23:32:48;;;;;;;;;;;;;;;-2.41;62.87;98818.55;218683;1277;25444;-68
2022/02/13 23:38:00;;;;;;;;;;;;;;;-2.35;63.23;98814.79;218510;1277;22562;-68
2022/02/13 23:43:42;;;;;;;;;;;;;;;;;;;;;
2022/02/13 23:49:45;;;;;;;;;;;;;;;-2.35;63.41;98800.27;218280;1279;25851;-67
2022/02/13 23:54:53;;;;;;;;;;;;;;;-2.28;64.25;98796.65;218822;1278;22741;-68
